Time,TemperatureF,DewpointF,PressureIn,WindDirection,WindDirectionDegrees,WindSpeedMPH,WindSpeedGustMPH,Humidity,HourlyPrecipIn,Conditions,Clouds,dailyrainin,SoftwareType,DateUTC
2013-09-21 00:00:00,72.0,65.5,29.86,South,184,0.0,6.0,80,0.00,,---,0.00,VWS V14.01,2013-09-21 04:00:00,
2013-09-21 00:03:00,73.3,66.0,29.88,ESE,111,2.0,7.0,77,0.00,,,0.00,weatherlink.com 1.10,2013-09-21 04:03:00,
2013-09-21 00:20:00,73.2,66.0,29.89,SE,141,0.0,6.0,77,0.00,,,0.00,weatherlink.com 1.10,2013-09-21 04:20:00,
2013-09-21 00:36:00,73.1,66.0,29.89,South,173,3.0,6.0,78,0.00,,,0.00,weatherlink.com 1.10,2013-09-21 04:36:00,
2013-09-21 00:53:00,72.8,66.0,29.88,SSE,150,0.0,3.0,78,0.00,,,0.00,weatherlink.com 1.10,2013-09-21 04:53:00,
2013-09-21 01:00:00,72.0,65.5,29.86,South,184,0.0,6.0,80,0.00,,---,0.00,VWS V14.01,2013-09-21 05:00:00,
2013-09-21 01:09:00,72.5,66.0,29.88,SSW,195,2.0,2.0,79,0.00,,,0.00,weatherlink.com 1.10,2013-09-21 05:09:00,
2013-09-21 01:25:00,72.3,65.0,29.87,South,183,0.0,0.0,79,0.00,,,0.00,weatherlink.com 1.10,2013-09-21 05:25:00,
2013-09-21 01:42:00,71.9,65.0,29.86,South,186,0.0,0.0,80,0.00,,,0.00,weatherlink.com 1.10,2013-09-21 05:42:00,
2013-09-21 01:59:00,71.6,66.0,29.86,South,186,0.0,0.0,81,0.00,,,0.00,weatherlink.com 1.10,2013-09-21 05:59:00,
2013-09-21 02:00:00,71.1,65.0,29.81,SSE,167,3.0,4.0,81,0.00,,---,0.00,VWS V14.01,2013-09-21 06:00:00,
2013-09-21 02:14:00,71.4,65.0,29.85,South,186,0.0,0.0,81,0.00,,,0.00,weatherlink.com 1.10,2013-09-21 06:14:00,
2013-09-21 02:32:00,71.2,65.0,29.84,SSE,167,0.0,2.0,81,0.00,,,0.00,weatherlink.com 1.10,2013-09-21 06:32:00,
2013-09-21 02:48:00,71.2,65.0,29.84,SE,143,0.0,4.0,81,0.00,,,0.00,weatherlink.com 1.10,2013-09-21 06:48:00,
2013-09-21 03:00:00,71.1,65.0,29.81,SSE,167,3.0,4.0,81,0.00,,---,0.00,VWS V14.01,2013-09-21 07:00:00,
2013-09-21 03:04:00,71.3,65.0,29.82,SE,130,0.0,3.0,81,0.00,,,0.00,weatherlink.com 1.10,2013-09-21 07:04:00,
2013-09-21 03:20:00,71.3,65.0,29.82,SE,144,2.0,4.0,81,0.00,,,0.00,weatherlink.com 1.10,2013-09-21 07:20:00,
2013-09-21 03:37:00,71.1,65.0,29.81,SSE,158,0.0,6.0,81,0.00,,,0.00,weatherlink.com 1.10,2013-09-21 07:37:00,
2013-09-21 03:53:00,70.8,65.0,29.81,South,179,5.0,5.0,82,0.00,,,0.00,weatherlink.com 1.10,2013-09-21 07:53:00,
2013-09-21 04:00:00,69.1,64.7,29.79,SE,140,2.0,5.0,86,0.00,,---,0.00,VWS V14.01,2013-09-21 08:00:00,
2013-09-21 04:10:00,70.5,65.0,29.80,SE,136,3.0,4.0,83,0.00,,,0.00,weatherlink.com 1.10,2013-09-21 08:10:00,
2013-09-21 04:26:00,70.2,65.0,29.80,SSE,167,0.0,4.0,84,0.00,,,0.00,weatherlink.com 1.10,2013-09-21 08:26:00,
2013-09-21 04:42:00,69.9,65.0,29.80,South,189,1.0,3.0,84,0.00,,,0.00,weatherlink.com 1.10,2013-09-21 08:42:00,
2013-09-21 04:59:00,69.6,65.0,29.79,South,180,0.0,0.0,85,0.00,,,0.00,weatherlink.com 1.10,2013-09-21 08:59:00,
2013-09-21 05:00:00,69.1,64.7,29.79,SE,140,2.0,5.0,86,0.00,,---,0.00,VWS V14.01,2013-09-21 09:00:00,
2013-09-21 05:16:00,69.3,65.0,29.79,SSE,153,0.0,1.0,86,0.00,,,0.00,weatherlink.com 1.10,2013-09-21 09:16:00,
2013-09-21 05:32:00,69.1,65.0,29.79,SE,132,3.0,5.0,86,0.00,,,0.00,weatherlink.com 1.10,2013-09-21 09:32:00,
2013-09-21 05:48:00,68.9,65.0,29.79,SE,144,6.0,7.0,87,0.00,,,0.00,weatherlink.com 1.10,2013-09-21 09:48:00,
2013-09-21 06:00:00,68.0,65.0,29.78,SSE,153,1.0,9.0,90,0.00,,---,0.00,VWS V14.01,2013-09-21 10:00:00,
2013-09-21 06:04:00,68.5,65.0,29.79,SE,134,3.0,6.0,88,0.00,,,0.00,weatherlink.com 1.10,2013-09-21 10:04:00,
2013-09-21 06:21:00,68.3,65.0,29.79,SE,130,1.0,9.0,89,0.00,,,0.00,weatherlink.com 1.10,2013-09-21 10:21:00,
2013-09-21 06:38:00,68.2,65.0,29.79,ESE,115,3.0,8.0,89,0.00,,,0.00,weatherlink.com 1.10,2013-09-21 10:38:00,
2013-09-21 06:55:00,68.1,65.0,29.79,SSE,157,2.0,8.0,89,0.00,,,0.00,weatherlink.com 1.10,2013-09-21 10:55:00,
2013-09-21 07:00:00,68.0,65.0,29.78,SSE,153,1.0,9.0,90,0.00,,---,0.00,VWS V14.01,2013-09-21 11:00:00,
2013-09-21 07:11:00,67.9,65.0,29.79,SSE,148,5.0,8.0,90,0.00,,,0.00,weatherlink.com 1.10,2013-09-21 11:11:00,
2013-09-21 07:27:00,68.1,65.0,29.79,SSE,164,4.0,7.0,90,0.00,,,0.00,weatherlink.com 1.10,2013-09-21 11:27:00,
2013-09-21 07:44:00,68.0,65.0,29.79,SSE,158,2.0,6.0,90,0.00,,,0.00,weatherlink.com 1.10,2013-09-21 11:44:00,
2013-09-21 08:00:00,67.9,65.0,29.79,SSE,157,1.0,5.0,91,0.00,,,0.00,weatherlink.com 1.10,2013-09-21 12:00:00,
2013-09-21 08:16:00,67.8,65.0,29.79,South,173,2.0,6.0,91,0.00,,,0.00,weatherlink.com 1.10,2013-09-21 12:16:00,
2013-09-21 08:33:00,67.8,66.0,29.79,SSE,161,3.0,6.0,92,0.00,,,0.00,weatherlink.com 1.10,2013-09-21 12:33:00,
2013-09-21 08:49:00,68.0,66.0,29.79,ESE,117,2.0,4.0,92,0.00,,,0.00,weatherlink.com 1.10,2013-09-21 12:49:00,
2013-09-21 09:00:00,68.1,66.0,29.78,South,180,2.0,9.0,93,0.00,,---,0.00,VWS V14.01,2013-09-21 13:00:00,
2013-09-21 09:06:00,68.1,66.0,29.78,SE,144,3.0,7.0,93,0.00,,,0.00,weatherlink.com 1.10,2013-09-21 13:06:00,
2013-09-21 09:22:00,68.0,66.0,29.79,SSE,161,2.0,7.0,93,0.00,,,0.00,weatherlink.com 1.10,2013-09-21 13:22:00,
2013-09-21 09:38:00,68.1,66.0,29.79,SE,131,3.0,7.0,93,0.00,,,0.00,weatherlink.com 1.10,2013-09-21 13:38:00,
2013-09-21 09:55:00,68.5,67.0,29.78,South,172,3.0,7.0,93,0.00,,,0.00,weatherlink.com 1.10,2013-09-21 13:55:00,
2013-09-21 10:00:00,70.1,67.7,29.77,SSE,157,5.0,9.0,92,0.01,,---,0.01,VWS V14.01,2013-09-21 14:00:00,
2013-09-21 10:11:00,68.8,66.0,29.79,South,169,2.0,6.0,92,0.00,,,0.00,weatherlink.com 1.10,2013-09-21 14:11:00,
2013-09-21 10:27:00,69.2,67.0,29.78,SSW,203,1.0,5.0,93,0.00,,,0.00,weatherlink.com 1.10,2013-09-21 14:27:00,
2013-09-21 10:44:00,69.4,67.0,29.78,SE,132,3.0,7.0,92,0.00,,,0.00,weatherlink.com 1.10,2013-09-21 14:44:00,
2013-09-21 11:00:00,70.1,67.7,29.77,SSE,157,5.0,9.0,92,0.01,,---,0.01,VWS V14.01,2013-09-21 15:00:00,
2013-09-21 11:01:00,69.6,67.0,29.78,South,176,4.0,7.0,92,0.00,,,0.00,weatherlink.com 1.10,2013-09-21 15:01:00,
2013-09-21 11:17:00,69.9,68.0,29.78,South,187,1.0,10.0,92,0.00,,,0.00,weatherlink.com 1.10,2013-09-21 15:17:00,
2013-09-21 11:34:00,70.1,68.0,29.77,SSE,161,3.0,7.0,92,0.01,,,0.01,weatherlink.com 1.10,2013-09-21 15:34:00,
2013-09-21 11:50:00,70.1,68.0,29.77,SE,142,5.0,6.0,93,0.02,,,0.02,weatherlink.com 1.10,2013-09-21 15:50:00,
2013-09-21 12:00:00,69.9,68.1,29.71,South,183,10.0,11.0,94,0.17,,---,0.18,VWS V14.01,2013-09-21 16:00:00,
2013-09-21 12:06:00,70.0,68.0,29.76,SSE,155,2.0,6.0,94,0.07,,,0.07,weatherlink.com 1.10,2013-09-21 16:06:00,
2013-09-21 12:22:00,70.1,69.0,29.75,ESE,118,0.0,7.0,95,0.08,,,0.08,weatherlink.com 1.10,2013-09-21 16:22:00,
2013-09-21 12:40:00,70.1,68.0,29.74,South,174,1.0,10.0,93,0.08,,,0.09,weatherlink.com 1.10,2013-09-21 16:40:00,
2013-09-21 12:56:00,70.4,68.0,29.73,SSE,150,5.0,8.0,93,0.05,,,0.10,weatherlink.com 1.10,2013-09-21 16:56:00,
2013-09-21 13:00:00,69.9,68.1,29.71,South,183,10.0,11.0,94,0.17,,---,0.18,VWS V14.01,2013-09-21 17:00:00,
2013-09-21 13:12:00,70.2,69.0,29.73,SE,134,4.0,8.0,94,0.04,,,0.11,weatherlink.com 1.10,2013-09-21 17:12:00,
2013-09-21 13:28:00,69.9,68.0,29.71,SSE,150,2.0,8.0,94,0.07,,,0.16,weatherlink.com 1.10,2013-09-21 17:28:00,
2013-09-21 14:00:00,69.4,68.5,29.65,South,171,2.0,13.0,97,0.40,,---,0.58,VWS V14.01,2013-09-21 18:00:00,
2013-09-21 14:07:00,69.4,68.0,29.71,ESE,116,4.0,8.0,95,0.03,,,0.03,weatherlink.com 1.10,2013-09-21 18:07:00,
2013-09-21 14:17:00,69.3,68.0,29.70,SSW,208,3.0,8.0,95,0.16,,,0.16,weatherlink.com 1.10,2013-09-21 18:17:00,
2013-09-21 14:33:00,69.2,68.0,29.69,East,101,7.0,8.0,96,0.34,,,0.34,weatherlink.com 1.10,2013-09-21 18:33:00,
2013-09-21 14:49:00,68.7,67.0,29.68,SSE,155,8.0,12.0,95,0.39,,,0.39,weatherlink.com 1.10,2013-09-21 18:49:00,
2013-09-21 15:00:00,69.4,68.5,29.65,South,171,2.0,13.0,97,0.40,,---,0.58,VWS V14.01,2013-09-21 19:00:00,
2013-09-21 15:06:00,68.9,68.0,29.68,West,267,2.0,13.0,95,0.44,,,0.47,weatherlink.com 1.10,2013-09-21 19:06:00,
2013-09-21 15:22:00,69.1,68.0,29.67,SE,143,3.0,8.0,96,0.34,,,0.54,weatherlink.com 1.10,2013-09-21 19:22:00,
2013-09-21 15:39:00,69.3,69.0,29.66,ESE,121,4.0,7.0,97,0.20,,,0.58,weatherlink.com 1.10,2013-09-21 19:39:00,
2013-09-21 16:00:00,69.3,67.8,29.64,WSW,244,0.0,16.0,95,0.05,,---,0.63,VWS V14.01,2013-09-21 20:00:00,
2013-09-21 16:12:00,70.0,69.0,29.64,SSW,194,9.0,12.0,96,0.11,,,0.60,weatherlink.com 1.10,2013-09-21 20:12:00,
2013-09-21 16:28:00,70.0,69.0,29.64,SW,234,5.0,8.0,96,0.07,,,0.62,weatherlink.com 1.10,2013-09-21 20:28:00,
2013-09-21 16:45:00,69.5,68.0,29.65,WNW,300,8.0,12.0,95,0.05,,,0.63,weatherlink.com 1.10,2013-09-21 20:45:00,
2013-09-21 17:00:00,69.3,67.8,29.64,WSW,244,0.0,16.0,95,0.05,,---,0.63,VWS V14.01,2013-09-21 21:00:00,
2013-09-21 17:01:00,69.2,68.0,29.65,WNW,290,5.0,9.0,95,0.03,,,0.63,weatherlink.com 1.10,2013-09-21 21:01:00,
2013-09-21 17:18:00,69.1,68.0,29.64,WNW,285,2.0,6.0,95,0.03,,,0.63,weatherlink.com 1.10,2013-09-21 21:18:00,
2013-09-21 17:35:00,69.2,68.0,29.65,NW,313,0.0,4.0,95,0.00,,,0.63,weatherlink.com 1.10,2013-09-21 21:35:00,
2013-09-21 17:50:00,69.2,68.0,29.65,West,277,7.0,9.0,95,0.00,,,0.63,weatherlink.com 1.10,2013-09-21 21:50:00,
2013-09-21 18:00:00,67.0,65.8,29.66,WNW,291,3.0,11.0,96,0.00,,---,0.63,VWS V14.01,2013-09-21 22:00:00,
2013-09-21 18:08:00,68.6,66.0,29.66,NW,315,3.0,9.0,92,0.00,,,0.63,weatherlink.com 1.10,2013-09-21 22:08:00,
2013-09-21 18:24:00,68.1,66.0,29.66,WNW,302,2.0,6.0,94,0.00,,,0.63,weatherlink.com 1.10,2013-09-21 22:24:00,
2013-09-21 18:40:00,67.9,67.0,29.66,SW,235,0.0,5.0,95,0.00,,,0.63,weatherlink.com 1.10,2013-09-21 22:40:00,
2013-09-21 18:56:00,67.7,66.0,29.66,WSW,248,1.0,3.0,95,0.00,,,0.63,weatherlink.com 1.10,2013-09-21 22:56:00,
2013-09-21 19:00:00,67.0,65.8,29.66,WNW,291,3.0,11.0,96,0.00,,---,0.63,VWS V14.01,2013-09-21 23:00:00,
2013-09-21 19:13:00,67.5,66.0,29.66,WSW,252,2.0,5.0,95,0.00,,,0.63,weatherlink.com 1.10,2013-09-21 23:13:00,
2013-09-21 19:29:00,67.2,66.0,29.66,WNW,298,2.0,8.0,95,0.00,,,0.63,weatherlink.com 1.10,2013-09-21 23:29:00,
2013-09-21 19:46:00,67.0,66.0,29.66,West,280,4.0,10.0,96,0.00,,,0.63,weatherlink.com 1.10,2013-09-21 23:46:00,
2013-09-21 20:00:00,65.8,63.7,29.69,NW,315,0.0,10.0,93,0.00,,---,0.63,VWS V14.01,2013-09-22 00:00:00,
2013-09-21 20:03:00,66.7,65.0,29.67,NNW,338,1.0,9.0,95,0.00,,,0.63,weatherlink.com 1.10,2013-09-22 00:03:00,
2013-09-21 20:19:00,66.5,65.0,29.67,WNW,300,1.0,11.0,96,0.00,,,0.63,weatherlink.com 1.10,2013-09-22 00:19:00,
2013-09-21 20:35:00,66.3,65.0,29.68,NW,309,2.0,7.0,95,0.00,,,0.63,weatherlink.com 1.10,2013-09-22 00:35:00,
2013-09-21 20:52:00,66.2,65.0,29.67,West,279,4.0,8.0,95,0.00,,,0.63,weatherlink.com 1.10,2013-09-22 00:52:00,
2013-09-21 21:00:00,65.8,63.7,29.69,NW,315,0.0,10.0,93,0.00,,---,0.63,VWS V14.01,2013-09-22 01:00:00,
2013-09-21 21:08:00,66.1,65.0,29.69,WNW,291,3.0,7.0,95,0.00,,,0.63,weatherlink.com 1.10,2013-09-22 01:08:00,
2013-09-21 21:24:00,66.0,64.0,29.69,NNW,333,1.0,6.0,94,0.00,,,0.63,weatherlink.com 1.10,2013-09-22 01:24:00,
2013-09-21 21:40:00,65.8,64.0,29.69,WNW,285,3.0,8.0,93,0.00,,,0.63,weatherlink.com 1.10,2013-09-22 01:40:00,
2013-09-21 21:58:00,65.7,64.0,29.70,NW,317,2.0,7.0,93,0.00,,,0.63,weatherlink.com 1.10,2013-09-22 01:58:00,
2013-09-21 22:00:00,64.5,62.1,29.71,NNW,348,2.0,8.0,92,0.01,,---,0.64,VWS V14.01,2013-09-22 02:00:00,
2013-09-21 22:14:00,65.3,63.0,29.70,WNW,299,3.0,6.0,93,0.00,,,0.63,weatherlink.com 1.10,2013-09-22 02:14:00,
2013-09-21 22:31:00,65.0,63.0,29.70,NW,313,2.0,9.0,93,0.01,,,0.64,weatherlink.com 1.10,2013-09-22 02:31:00,
2013-09-21 22:46:00,65.0,63.0,29.70,NW,313,1.0,4.0,93,0.01,,,0.64,weatherlink.com 1.10,2013-09-22 02:46:00,
2013-09-21 23:00:00,64.5,62.1,29.71,NNW,348,2.0,8.0,92,0.01,,---,0.64,VWS V14.01,2013-09-22 03:00:00,
2013-09-21 23:04:00,64.9,63.0,29.70,WNW,292,3.0,5.0,92,0.01,,,0.64,weatherlink.com 1.10,2013-09-22 03:04:00,
2013-09-21 23:20:00,64.6,62.0,29.71,WNW,303,2.0,8.0,92,0.01,,,0.64,weatherlink.com 1.10,2013-09-22 03:20:00,
2013-09-21 23:36:00,64.5,62.0,29.71,NW,305,1.0,6.0,92,0.00,,,0.64,weatherlink.com 1.10,2013-09-22 03:36:00,
2013-09-21 23:52:00,64.4,62.0,29.71,NNW,342,0.0,7.0,92,0.00,,,0.64,weatherlink.com 1.10,2013-09-22 03:52:00,